createdAt,value
2019-04-11T00:01:58.507Z,63.72
2019-04-11T00:04:26.160Z,64.12
2019-04-11T00:06:54.049Z,63.94
2019-04-11T00:09:21.341Z,63.85
2019-04-11T00:11:48.577Z,63.84
2019-04-11T00:14:16.099Z,63.85
2019-04-11T00:16:43.562Z,64.06
2019-04-11T00:19:12.139Z,63.73
2019-04-11T00:21:39.526Z,63.77
2019-04-11T00:24:07.132Z,63.91
2019-04-11T00:26:34.538Z,63.67
2019-04-11T00:29:01.854Z,64.54
2019-04-11T00:31:29.183Z,64.27
2019-04-11T00:33:56.441Z,63.82
2019-04-11T00:36:24.205Z,63.53
2019-04-11T00:38:51.648Z,63.87
2019-04-11T00:41:18.894Z,63.62
2019-04-11T00:43:46.900Z,63.75
2019-04-11T00:46:14.282Z,63.08
2019-04-11T00:48:41.845Z,63.68
2019-04-11T00:51:09.814Z,64.49
2019-04-11T00:53:38.271Z,64.00
2019-04-11T00:56:06.234Z,64.48
2019-04-11T00:58:33.953Z,64.71
2019-04-11T01:01:01.740Z,64.99
2019-04-11T01:03:30.415Z,65.31
2019-04-11T01:05:58.262Z,65.51
2019-04-11T01:08:25.619Z,65.72
2019-04-11T01:10:52.850Z,65.60
2019-04-11T01:13:20.955Z,66.19
2019-04-11T01:16:00.726Z,66.42
2019-04-11T01:18:28.007Z,66.22
2019-04-11T01:20:55.677Z,65.90
2019-04-11T01:23:23.075Z,66.54
2019-04-11T01:25:51.111Z,66.66
2019-04-11T01:28:18.560Z,66.97
2019-04-11T01:30:53.992Z,66.52
2019-04-11T01:33:21.999Z,66.75
2019-04-11T01:35:49.911Z,66.78
2019-04-11T01:38:20.963Z,67.17
2019-04-11T01:40:47.739Z,67.14
2019-04-11T01:43:15.646Z,67.22
2019-04-11T01:45:43.369Z,66.98
2019-04-11T01:48:18.031Z,66.97
2019-04-11T01:50:45.354Z,67.32
2019-04-11T01:53:13.028Z,67.25
2019-04-11T01:55:40.835Z,66.76
2019-04-11T01:58:08.679Z,66.88
2019-04-11T02:00:56.748Z,66.73
2019-04-11T02:03:45.505Z,66.94
2019-04-11T02:06:13.900Z,66.56
2019-04-11T02:08:41.722Z,66.42
2019-04-11T02:11:09.692Z,66.46
2019-04-11T02:13:37.053Z,66.25
2019-04-11T02:16:05.011Z,65.88
2019-04-11T02:18:32.328Z,66.12
2019-04-11T02:20:59.709Z,66.53
2019-04-11T02:23:35.085Z,66.84
2019-04-11T02:26:09.935Z,66.39
2019-04-11T02:28:37.083Z,66.35
2019-04-11T02:31:05.371Z,67.47
2019-04-11T02:33:34.866Z,67.06
2019-04-11T02:36:03.106Z,67.41
2019-04-11T02:38:32.540Z,66.72
2019-04-11T02:41:01.151Z,67.02
2019-04-11T02:43:29.565Z,66.78
2019-04-11T02:46:09.798Z,67.20
2019-04-11T02:48:26.982Z,66.65
2019-04-11T02:50:56.586Z,66.70
2019-04-11T02:53:26.137Z,66.63
2019-04-11T02:55:54.300Z,67.06
2019-04-11T02:58:23.055Z,67.16
2019-04-11T03:00:53.210Z,66.87
2019-04-11T03:03:20.985Z,66.40
2019-04-11T03:05:48.638Z,66.36
2019-04-11T03:08:19.194Z,66.79
2019-04-11T03:10:46.061Z,67.11
2019-04-11T03:13:14.341Z,66.81
2019-04-11T03:15:57.418Z,66.91
2019-04-11T03:18:18.558Z,67.58
2019-04-11T03:20:47.543Z,67.50
2019-04-11T03:23:12.207Z,67.75
2019-04-11T03:25:40.439Z,67.86
2019-04-11T03:28:13.650Z,67.61
2019-04-11T03:30:56.853Z,67.68
2019-04-11T03:36:27.443Z,67.96
2019-04-11T03:38:29.670Z,67.93
2019-04-11T03:40:50.205Z,67.98
2019-04-11T03:43:18.371Z,67.91
2019-04-11T03:45:52.515Z,67.55
2019-04-11T03:48:18.030Z,67.97
2019-04-11T03:50:34.816Z,67.63
2019-04-11T03:53:03.827Z,67.35
2019-04-11T03:55:32.447Z,67.38
2019-04-11T03:58:01.222Z,67.27
2019-04-11T04:00:34.045Z,67.39
2019-04-11T04:02:59.437Z,66.70
2019-04-11T04:05:30.313Z,66.59
2019-04-11T04:07:58.213Z,66.68
2019-04-11T04:10:27.897Z,66.53
2019-04-11T04:12:55.878Z,65.75
2019-04-11T04:15:47.220Z,65.23
2019-04-11T04:18:31.773Z,65.14
2019-04-11T04:21:22.673Z,64.94
2019-04-11T04:23:51.874Z,64.72
2019-04-11T04:26:19.876Z,62.66
2019-04-11T04:28:47.667Z,62.14
2019-04-11T04:31:16.272Z,62.38
2019-04-11T04:33:45.477Z,62.60
2019-04-11T04:36:15.389Z,63.12
2019-04-11T04:38:44.522Z,63.63
2019-04-11T04:41:23.866Z,64.57
2019-04-11T04:43:44.300Z,64.46
2019-04-11T04:46:31.434Z,64.55
2019-04-11T04:48:42.602Z,64.66
2019-04-11T04:51:12.050Z,64.86
2019-04-11T04:53:40.914Z,65.26
2019-04-11T04:56:09.011Z,65.08
2019-04-11T04:58:37.818Z,65.56
2019-04-11T05:01:06.820Z,65.25
2019-04-11T05:03:34.714Z,65.39
2019-04-11T05:06:03.847Z,65.22
2019-04-11T05:08:32.523Z,64.49
2019-04-11T05:11:00.087Z,64.09
2019-04-11T05:13:27.958Z,63.88
2019-04-11T05:16:07.353Z,63.77
2019-04-11T05:18:25.655Z,63.46
2019-04-11T05:20:54.719Z,63.50
2019-04-11T05:23:23.527Z,63.33
2019-04-11T05:25:50.965Z,63.21
2019-04-11T05:28:19.245Z,63.17
2019-04-11T05:30:46.656Z,62.81
2019-04-11T05:33:13.938Z,62.73
2019-04-11T05:35:41.727Z,62.29
2019-04-11T05:38:09.110Z,62.13
2019-04-11T05:40:36.403Z,61.69
2019-04-11T05:43:03.911Z,61.70
2019-04-11T05:45:31.819Z,61.89
2019-04-11T05:48:01.019Z,62.34
2019-04-11T05:50:30.121Z,61.95
2019-04-11T05:53:02.389Z,62.09
2019-04-11T05:55:32.129Z,62.05
2019-04-11T05:58:00.715Z,61.66
2019-04-11T06:00:38.992Z,60.89
2019-04-11T06:03:07.831Z,60.64
2019-04-11T06:05:59.909Z,60.64
2019-04-11T06:08:29.957Z,60.15
2019-04-11T06:11:19.154Z,59.89
2019-04-11T06:13:51.490Z,60.18
2019-04-11T06:16:18.856Z,60.32
2019-04-11T06:19:06.020Z,60.11
2019-04-11T06:21:48.413Z,60.25
2019-04-11T06:24:41.120Z,60.35
2019-04-11T06:27:30.813Z,60.36
2019-04-11T06:30:32.994Z,60.10
2019-04-11T06:33:13.136Z,60.20
2019-04-11T06:36:05.511Z,60.46
2019-04-11T06:38:51.537Z,60.23
2019-04-11T06:41:50.650Z,59.54
2019-04-11T06:44:37.679Z,58.69
2019-04-11T06:47:40.923Z,58.79
2019-04-11T06:50:27.992Z,57.55
2019-04-11T06:52:55.532Z,55.44
2019-04-11T06:55:46.797Z,53.98
2019-04-11T06:58:25.510Z,53.54
2019-04-11T07:00:58.307Z,53.54
2019-04-11T07:03:30.576Z,54.70
2019-04-11T07:06:00.182Z,53.44
2019-04-11T07:08:32.101Z,53.83
2019-04-11T07:11:02.927Z,53.41
2019-04-11T07:13:45.867Z,53.70
2019-04-11T07:16:14.065Z,54.31
2019-04-11T07:18:56.951Z,54.82
2019-04-11T07:21:29.136Z,54.93
2019-04-11T07:24:14.461Z,55.82
2019-04-11T07:27:04.118Z,55.82
2019-04-11T07:30:05.806Z,55.55
2019-04-11T07:32:34.265Z,56.18
2019-04-11T07:35:19.493Z,55.71
2019-04-11T07:37:49.381Z,55.98
2019-04-11T07:40:36.356Z,53.84
2019-04-11T07:43:29.262Z,53.84
2019-04-11T07:46:25.681Z,53.22
2019-04-11T07:48:57.420Z,53.65
2019-04-11T07:51:28.647Z,54.35
2019-04-11T07:53:57.438Z,54.99
2019-04-11T07:57:02.158Z,54.46
2019-04-11T07:59:49.140Z,53.33
2019-04-11T08:02:39.783Z,49.84
2019-04-11T08:05:34.448Z,51.24
2019-04-11T08:08:25.723Z,51.24
2019-04-11T08:11:09.602Z,52.18
2019-04-11T08:13:45.001Z,46.68
2019-04-11T08:16:44.895Z,49.16
2019-04-11T08:19:51.142Z,49.85
2019-04-11T08:22:41.319Z,49.69
2019-04-11T08:25:27.189Z,47.75
2019-04-11T08:28:01.272Z,50.29
2019-04-11T08:30:45.354Z,46.77
2019-04-11T08:33:14.074Z,47.20
2019-04-11T08:35:59.807Z,47.14
2019-04-11T08:38:29.136Z,47.42
2019-04-11T08:41:11.576Z,47.41
2019-04-11T08:43:39.371Z,48.16
2019-04-11T08:46:12.928Z,47.98
2019-04-11T08:48:44.024Z,48.04
2019-04-11T08:51:11.521Z,49.02
2019-04-11T08:54:01.539Z,48.75
2019-04-11T08:56:29.599Z,44.95
2019-04-11T08:59:35.860Z,44.95
2019-04-11T09:02:04.645Z,46.80
2019-04-11T09:04:50.209Z,48.91
2019-04-11T09:07:19.659Z,49.83
2019-04-11T09:10:09.591Z,46.84
2019-04-11T09:12:39.402Z,46.84
2019-04-11T09:15:32.964Z,48.13
2019-04-11T09:18:08.982Z,48.91
2019-04-11T09:20:52.452Z,48.20
2019-04-11T09:23:21.749Z,46.56
2019-04-11T09:26:20.803Z,47.70
2019-04-11T09:28:50.023Z,47.51
2019-04-11T09:31:39.939Z,48.37
2019-04-11T09:34:26.027Z,48.38
2019-04-11T09:37:00.988Z,48.94
2019-04-11T09:39:48.262Z,47.88
2019-04-11T09:42:34.586Z,46.61
2019-04-11T09:45:39.601Z,47.73
2019-04-11T09:48:42.281Z,48.92
2019-04-11T09:51:33.914Z,47.56
2019-04-11T09:54:09.184Z,47.53
2019-04-11T09:56:56.041Z,45.98
2019-04-11T09:59:31.978Z,46.22
2019-04-11T10:02:20.906Z,44.53
2019-04-11T10:04:48.471Z,45.65
2019-04-11T10:07:33.689Z,43.26
2019-04-11T10:10:24.555Z,43.77
2019-04-11T10:13:10.827Z,40.04
2019-04-11T10:15:57.743Z,39.90
2019-04-11T10:18:47.627Z,39.99
2019-04-11T10:21:15.227Z,38.95
2019-04-11T10:24:01.006Z,38.95
2019-04-11T10:26:31.907Z,40.35
2019-04-11T10:29:19.249Z,39.37
2019-04-11T10:31:47.628Z,40.24
2019-04-11T10:34:33.542Z,40.24
2019-04-11T10:37:04.397Z,39.90
2019-04-11T10:39:54.563Z,38.79
2019-04-11T10:42:26.687Z,40.22
2019-04-11T10:45:23.060Z,39.16
2019-04-11T10:47:52.069Z,38.26
2019-04-11T10:50:49.303Z,38.65
2019-04-11T10:53:17.997Z,37.98
2019-04-11T10:56:08.495Z,38.53
2019-04-11T10:58:43.407Z,38.04
2019-04-11T11:01:33.796Z,39.34
2019-04-11T11:04:09.522Z,40.13
2019-04-11T11:06:37.921Z,38.95
2019-04-11T11:09:26.192Z,39.36
2019-04-11T11:12:06.384Z,40.70
2019-04-11T11:15:07.108Z,40.70
2019-04-11T11:18:35.724Z,40.01
2019-04-11T11:21:11.309Z,38.30
2019-04-11T11:23:58.791Z,39.22
2019-04-11T11:26:44.158Z,38.20
2019-04-11T11:29:31.971Z,38.29
2019-04-11T11:32:05.262Z,38.62
2019-04-11T11:34:42.591Z,39.38
2019-04-11T11:37:29.025Z,40.62
2019-04-11T11:40:18.813Z,40.62
2019-04-11T11:43:04.359Z,45.18
2019-04-11T11:45:57.163Z,45.18
2019-04-11T11:48:46.378Z,46.61
2019-04-11T11:51:17.293Z,45.60
2019-04-11T11:53:53.218Z,45.60
2019-04-11T11:56:20.676Z,47.68
2019-04-11T11:59:06.913Z,46.76
2019-04-11T12:01:38.907Z,47.49
2019-04-11T12:04:39.329Z,46.70
2019-04-11T12:07:08.792Z,48.69
2019-04-11T12:09:55.058Z,49.85
2019-04-11T12:12:28.150Z,50.20
2019-04-11T12:15:17.257Z,49.25
2019-04-11T12:18:18.093Z,50.39
2019-04-11T12:20:49.371Z,49.54
2019-04-11T12:23:42.814Z,51.53
2019-04-11T12:26:01.195Z,51.53
2019-04-11T12:29:00.195Z,51.20
2019-04-11T12:31:28.720Z,51.20
2019-04-11T12:34:16.393Z,48.90
2019-04-11T12:36:50.122Z,49.27
2019-04-11T12:39:31.844Z,48.86
2019-04-11T12:42:19.719Z,48.86
2019-04-11T12:45:06.435Z,49.11
2019-04-11T12:47:47.131Z,50.58
2019-04-11T12:50:32.845Z,49.37
2019-04-11T12:53:18.708Z,49.37
2019-04-11T12:56:04.417Z,50.03
2019-04-11T12:58:51.234Z,50.92
2019-04-11T13:01:36.501Z,50.94
2019-04-11T13:04:23.440Z,50.41
2019-04-11T13:07:09.351Z,51.75
2019-04-11T13:09:40.164Z,49.92
2019-04-11T13:12:08.881Z,48.87
2019-04-11T13:14:58.504Z,49.19
2019-04-11T13:17:29.937Z,49.19
2019-04-11T13:20:16.736Z,49.41
2019-04-11T13:22:44.101Z,49.11
2019-04-11T13:25:45.443Z,48.72
2019-04-11T13:28:12.242Z,47.72
2019-04-11T13:31:07.691Z,49.90
2019-04-11T13:33:34.971Z,49.63
2019-04-11T13:36:20.332Z,48.29
2019-04-11T13:38:51.487Z,49.15
2019-04-11T13:41:43.867Z,49.15
2019-04-11T13:44:13.852Z,47.11
2019-04-11T13:47:12.850Z,46.58
2019-04-11T13:50:03.934Z,46.47
2019-04-11T13:52:50.216Z,46.39
2019-04-11T13:55:20.093Z,47.31
2019-04-11T13:58:06.906Z,48.12
2019-04-11T14:00:53.298Z,47.45
2019-04-11T14:03:49.311Z,46.54
2019-04-11T14:06:28.841Z,47.50
2019-04-11T14:09:15.711Z,47.46
2019-04-11T14:11:46.216Z,47.37
2019-04-11T14:14:19.241Z,48.29
2019-04-11T14:17:17.905Z,48.74
2019-04-11T14:20:28.294Z,48.35
2019-04-11T14:23:08.431Z,46.18
2019-04-11T14:25:55.414Z,46.18
2019-04-11T14:28:26.065Z,47.25
2019-04-11T14:31:11.753Z,45.63
2019-04-11T14:33:41.299Z,45.24
2019-04-11T14:36:33.234Z,44.88
2019-04-11T14:38:55.735Z,44.88
2019-04-11T14:41:41.697Z,44.54
2019-04-11T14:44:09.569Z,45.10
2019-04-11T14:47:06.866Z,45.40
2019-04-11T14:49:35.045Z,44.65
2019-04-11T14:52:17.259Z,46.25
2019-04-11T14:54:49.976Z,46.11
2019-04-11T14:57:30.567Z,44.47
2019-04-11T15:00:02.699Z,44.48
2019-04-11T15:03:04.684Z,44.48
2019-04-11T15:05:44.791Z,43.64
2019-04-11T15:08:14.960Z,45.00
2019-04-11T15:11:18.467Z,44.64
2019-04-11T15:13:47.773Z,45.06
2019-04-11T15:16:40.741Z,44.19
2019-04-11T15:19:08.012Z,44.35
2019-04-11T15:21:53.476Z,44.64
2019-04-11T15:24:21.369Z,46.62
2019-04-11T15:27:08.747Z,44.91
2019-04-11T15:29:37.892Z,44.24
2019-04-11T15:32:36.803Z,42.56
2019-04-11T15:35:10.387Z,43.33
2019-04-11T15:37:55.550Z,44.59
2019-04-11T15:40:44.263Z,44.37
2019-04-11T15:43:43.397Z,45.23
2019-04-11T15:46:14.713Z,46.14
2019-04-11T15:49:01.498Z,47.80
2019-04-11T15:51:35.132Z,47.19
2019-04-11T15:54:22.336Z,46.12
2019-04-11T15:57:12.306Z,46.12
2019-04-11T15:59:58.024Z,46.20
2019-04-11T16:02:40.921Z,47.58
2019-04-11T16:05:46.207Z,47.73
2019-04-11T16:08:17.529Z,48.12
2019-04-11T16:10:53.810Z,49.12
2019-04-11T16:13:41.022Z,49.12
2019-04-11T16:16:11.981Z,49.37
2019-04-11T16:19:03.062Z,49.37
2019-04-11T16:21:48.550Z,51.16
2019-04-11T16:24:27.346Z,52.77
2019-04-11T16:27:11.625Z,52.79
2019-04-11T16:29:46.303Z,53.26
2019-04-11T16:32:13.872Z,54.32
2019-04-11T16:34:51.595Z,54.49
2019-04-11T16:37:18.553Z,54.03
2019-04-11T16:40:08.381Z,53.92
2019-04-11T16:42:43.714Z,54.19
2019-04-11T16:45:33.179Z,54.97
2019-04-11T16:48:03.394Z,55.79
2019-04-11T16:50:31.311Z,55.20
2019-04-11T16:52:59.053Z,55.54
2019-04-11T16:55:26.417Z,55.64
2019-04-11T16:57:56.416Z,56.55
2019-04-11T17:00:24.003Z,57.09
2019-04-11T17:02:54.796Z,56.87
2019-04-11T17:05:20.695Z,56.52
2019-04-11T17:08:06.359Z,56.32
2019-04-11T17:10:52.047Z,56.32
2019-04-11T17:13:19.568Z,56.23
2019-04-11T17:15:46.820Z,55.71
2019-04-11T17:18:14.051Z,55.47
2019-04-11T17:20:41.353Z,55.71
2019-04-11T17:23:08.629Z,55.71
2019-04-11T17:25:35.856Z,56.46
2019-04-11T17:28:03.164Z,54.81
2019-04-11T17:30:30.428Z,54.90
2019-04-11T17:32:57.715Z,55.49
2019-04-11T17:35:25.002Z,54.96
2019-04-11T17:37:52.242Z,54.96
2019-04-11T17:40:19.513Z,55.95
2019-04-11T17:42:46.784Z,56.17
2019-04-11T17:45:14.086Z,55.61
2019-04-11T17:47:41.358Z,55.75
2019-04-11T17:50:08.801Z,55.16
2019-04-11T17:52:36.052Z,55.09
2019-04-11T17:55:03.666Z,55.24
2019-04-11T17:57:30.932Z,56.52
2019-04-11T17:59:59.130Z,57.11
2019-04-11T18:02:27.095Z,57.67
2019-04-11T18:04:54.507Z,58.26
2019-04-11T18:07:21.727Z,58.21
2019-04-11T18:09:49.016Z,58.68
2019-04-11T18:12:16.356Z,58.58
2019-04-11T18:14:43.786Z,58.80
2019-04-11T18:17:11.513Z,59.35
2019-04-11T18:19:38.831Z,59.37
2019-04-11T18:22:08.005Z,59.08
2019-04-11T18:24:35.560Z,59.27
2019-04-11T18:27:03.109Z,59.34
2019-04-11T18:29:30.346Z,59.72
2019-04-11T18:31:57.603Z,59.98
2019-04-11T18:34:24.887Z,59.71
2019-04-11T18:36:52.400Z,59.96
2019-04-11T18:39:19.654Z,60.27
2019-04-11T18:41:46.947Z,60.60
2019-04-11T18:44:18.033Z,60.61
2019-04-11T18:46:44.572Z,60.65
2019-04-11T18:49:11.827Z,61.27
2019-04-11T18:51:39.138Z,61.53
2019-04-11T18:54:07.760Z,60.70
2019-04-11T18:56:37.832Z,60.70
2019-04-11T18:59:04.784Z,60.55
2019-04-11T19:01:32.012Z,60.18
2019-04-11T19:03:59.305Z,60.08
2019-04-11T19:06:28.157Z,60.08
2019-04-11T19:08:55.641Z,60.15
2019-04-11T19:11:22.901Z,60.05
2019-04-11T19:13:50.181Z,60.10
2019-04-11T19:16:17.451Z,60.25
2019-04-11T19:18:47.691Z,59.96
2019-04-11T19:21:13.943Z,59.82
2019-04-11T19:23:41.195Z,60.30
2019-04-11T19:26:08.427Z,60.12
2019-04-11T19:28:35.692Z,60.13
2019-04-11T19:31:03.024Z,60.32
2019-04-11T19:33:34.077Z,60.62
2019-04-11T19:36:00.411Z,61.00
2019-04-11T19:38:32.523Z,61.27
2019-04-11T19:40:59.764Z,61.78
2019-04-11T19:43:27.058Z,61.67
2019-04-11T19:45:54.290Z,62.61
2019-04-11T19:48:22.673Z,62.59
2019-04-11T19:50:50.850Z,62.62
2019-04-11T19:53:18.101Z,62.40
2019-04-11T19:56:13.970Z,62.39
2019-04-11T19:58:44.136Z,62.44
2019-04-11T20:01:11.394Z,62.05
2019-04-11T20:03:38.788Z,62.10
2019-04-11T20:06:06.027Z,61.68
2019-04-11T20:08:33.312Z,61.78
2019-04-11T20:11:01.366Z,61.52
2019-04-11T20:13:32.031Z,61.15
2019-04-11T20:15:58.460Z,61.12
2019-04-11T20:18:25.721Z,61.57
2019-04-11T20:20:52.972Z,61.22
2019-04-11T20:23:20.230Z,61.30
2019-04-11T20:25:49.674Z,61.16
2019-04-11T20:28:19.828Z,61.73
2019-04-11T20:30:45.818Z,61.99
2019-04-11T20:33:13.054Z,61.78
2019-04-11T20:35:40.681Z,62.02
2019-04-11T20:38:08.097Z,61.99
2019-04-11T20:40:35.395Z,62.41
2019-04-11T20:43:02.654Z,62.62
2019-04-11T20:45:31.904Z,62.62
2019-04-11T20:48:00.292Z,62.71
2019-04-11T20:50:28.295Z,62.85
2019-04-11T20:52:55.726Z,63.45
2019-04-11T20:55:22.970Z,63.21
2019-04-11T20:57:50.193Z,63.29
2019-04-11T21:00:17.662Z,63.21
2019-04-11T21:02:44.932Z,63.36
2019-04-11T21:05:12.152Z,63.68
2019-04-11T21:07:39.379Z,63.84
2019-04-11T21:10:06.807Z,63.96
2019-04-11T21:12:37.077Z,64.08
2019-04-11T21:15:03.589Z,63.75
2019-04-11T21:17:30.855Z,64.02
2019-04-11T21:19:58.219Z,63.88
2019-04-11T21:22:25.459Z,63.87
2019-04-11T21:24:52.704Z,64.09
2019-04-11T21:27:19.955Z,64.33
2019-04-11T21:29:47.208Z,64.07
2019-04-11T21:32:14.523Z,63.98
2019-04-11T21:34:41.787Z,64.19
2019-04-11T21:37:09.024Z,64.05
2019-04-11T21:39:36.274Z,64.32
2019-04-11T21:42:05.909Z,64.25
2019-04-11T21:44:35.965Z,64.18
2019-04-11T21:47:02.020Z,64.16
2019-04-11T21:49:29.366Z,64.51
2019-04-11T21:51:56.687Z,64.48
2019-04-11T21:54:23.938Z,64.43
2019-04-11T21:56:51.227Z,63.53
2019-04-11T21:59:20.385Z,63.75
2019-04-11T22:01:47.811Z,63.67
2019-04-11T22:04:15.169Z,63.21
2019-04-11T22:06:42.420Z,62.95
2019-04-11T22:09:09.909Z,62.37
2019-04-11T22:11:38.348Z,62.02
2019-04-11T22:14:06.286Z,61.69
2019-04-11T22:16:33.525Z,61.61
2019-04-11T22:19:03.308Z,61.50
2019-04-11T22:21:30.621Z,61.20
2019-04-11T22:23:57.857Z,61.11
2019-04-11T22:26:25.129Z,61.41
2019-04-11T22:28:54.936Z,61.05
2019-04-11T22:31:24.715Z,60.32
2019-04-11T22:34:05.216Z,60.28
2019-04-11T22:36:32.463Z,60.61
2019-04-11T22:39:01.069Z,60.76
2019-04-11T22:41:28.920Z,60.98
2019-04-11T22:43:56.191Z,60.99
2019-04-11T22:46:23.418Z,60.63
2019-04-11T22:48:50.696Z,60.47
2019-04-11T22:51:18.047Z,60.50
2019-04-11T22:53:45.249Z,60.55
2019-04-11T22:56:12.569Z,60.69
2019-04-11T22:58:39.815Z,60.26
2019-04-11T23:01:07.144Z,60.09
2019-04-11T23:03:56.141Z,60.29
2019-04-11T23:06:23.390Z,60.17
2019-04-11T23:08:51.207Z,60.32
2019-04-11T23:11:18.484Z,59.97
2019-04-11T23:13:46.319Z,60.08
2019-04-11T23:16:14.436Z,59.80
2019-04-11T23:18:44.142Z,59.88
2019-04-11T23:21:14.112Z,59.60
2019-04-11T23:23:40.923Z,59.52
2019-04-11T23:26:08.145Z,59.60
2019-04-11T23:28:35.358Z,59.22
2019-04-11T23:31:02.611Z,59.15
2019-04-11T23:33:29.864Z,59.30
2019-04-11T23:35:57.086Z,59.80
2019-04-11T23:38:24.607Z,59.55
2019-04-11T23:40:51.927Z,59.60
2019-04-11T23:43:20.153Z,60.14
2019-04-11T23:45:50.919Z,60.12
2019-04-11T23:48:17.130Z,60.12
2019-04-11T23:50:44.456Z,60.70
2019-04-11T23:53:11.855Z,60.95
2019-04-11T23:55:39.087Z,61.64
2019-04-11T23:58:06.323Z,61.13
